Bei Facebook empfehlenBei Twitter postenGoogle plusPinterest

Das Wetter im Erzgebirge am 23.05.2015

Wetter und Klima am 23.05.2015 Holzhau im Erzgebirge (630m ü.NN)
Letzte gemessene Temperatur und Uhrzeit der Messung23:45:00 Uhr9.20 °C
Temperatur (Maximum / Höchstwert) und Uhrzeit der Messung16:15:00 Uhr18.90 °C
Temperatur (Minimum / Tiefstwert) und Uhrzeit der Messung05:15:000.80 °C
Errechneter Absolutwert der Temperaturschwankungen zwischen Tmin und Tmax des Tages18.10 K
Errechnete Tagesmitteltemperatur10.92604 °C
Gesamt - Niederschlag des Tages (in flüssiger Form)0.00 Liter / m²
Luftdruck (Maximum / Höchstwert) und Zeitpunkt der Messung00:30:00 Uhr1020.50 hPa
Luftdruck (Minimum / Tiefstwert) und Zeitpunkt der Messung19:15:00 Uhr1015.20 hPa
Errechneter Absolutwert der Luftdruckschwankungen des Tages5.30 hPa
Höchste gemessene Windgeschwindigkeit und Uhrzeit der Messung14:15:00 Uhr12.96 km/h
Errechnete Windhäufigkeit in Relation zu den Messwerten des Tages14.58333 %
Niedrigste Windkühle (Windchill) und Zeitpunkt der Messung05:15:00 Uhr0.80 °C
Taupunkt (Maximum / Höchstwert) und Uhrzeit der Messung18:30:00 Uhr8.10 °C
Taupunkt (Minimum / Tiefstwert) und Uhrzeit der Messung05:00:00-0.90 °C
Anzahl der automatisch eingelesenen Messwerte 96

Detaillierte Wetter- und Klima- Messwerte für den 23.05.2015 in Holzhau im Erzgebirge (630m ü.NN)
ZeitTemperaturLuftdruckRel. LuftfeuchteWindWindrichtungWindchillTaupunktNiederschlag l/m²
23:45:009.20 °C1016.50 hPa79.00 %5.80 °C 
23:30:009.20 °C1016.40 hPa78.00 %5.60 °C 
23:15:009.20 °C1016.50 hPa78.00 %5.60 °C 
23:00:009.10 °C1016.40 hPa77.00 %5.30 °C 
22:45:009.30 °C1016.30 hPa75.00 %5.10 °C 
22:30:009.50 °C1016.30 hPa74.00 %5.10 °C 
22:15:009.90 °C1016.30 hPa73.00 %5.30 °C 
22:00:0010.40 °C1016.20 hPa72.00 %5.60 °C 
21:45:0010.90 °C1016.30 hPa70.00 %5.70 °C 
21:30:0011.60 °C1016.00 hPa68.00 %5.90 °C 
21:15:0012.10 °C1015.90 hPa66.00 %5.90 °C 
21:00:0012.80 °C1015.70 hPa65.00 %6.40 °C 
20:45:0013.20 °C1015.70 hPa64.00 %6.50 °C 
20:30:0013.60 °C1015.70 hPa62.00 %6.50 °C 
20:15:0014.10 °C1015.50 hPa61.00 %6.70 °C 
20:00:0014.40 °C1015.40 hPa59.00 %6.50 °C 
19:45:0014.90 °C1015.30 hPa58.00 %6.70 °C 
19:30:0015.40 °C1015.50 hPa56.00 %6.70 °C 
19:15:0016.00 °C1015.20 hPa54.00 %6.70 °C 
19:00:0016.60 °C1015.30 hPa53.00 %7.00 °C 
18:45:0017.40 °C1015.30 hPa53.00 %8.28 km/hWSW17.70 °C7.70 °C 
18:30:0017.80 °C1015.20 hPa53.00 %8.10 °C 
18:15:0017.10 °C1015.20 hPa54.00 %7.70 °C 
18:00:0016.30 °C1015.30 hPa52.00 %6.40 °C 
17:45:0017.30 °C1015.30 hPa51.00 %5.04 km/hWSW18.00 °C7.10 °C 
17:30:0017.90 °C1015.20 hPa52.00 %1.80 km/hNO17.90 °C7.90 °C 
17:15:0017.60 °C1015.30 hPa50.00 %6.12 km/hONO18.20 °C7.10 °C 
17:00:0017.60 °C1015.50 hPa49.00 %6.80 °C 
16:45:0018.60 °C1015.30 hPa47.00 %6.48 km/hWNW19.30 °C7.10 °C 
16:30:0018.30 °C1015.30 hPa50.00 %9.72 km/hWNW18.60 °C7.70 °C 
16:15:0018.90 °C1015.30 hPa48.00 %5.04 km/hNO19.80 °C7.70 °C 
16:00:0018.60 °C1015.50 hPa48.00 %6.12 km/hSO19.30 °C7.40 °C 
15:45:0018.90 °C1015.40 hPa46.00 %7.00 °C 
15:30:0018.40 °C1015.70 hPa47.00 %6.90 °C 
15:15:0018.20 °C1015.70 hPa49.00 %7.30 °C 
15:00:0018.60 °C1015.70 hPa49.00 %7.70 °C 
14:45:0017.90 °C1015.70 hPa50.00 %7.30 °C 
14:30:0018.20 °C1016.30 hPa47.00 %6.70 °C 
14:15:0018.40 °C1016.20 hPa48.00 %12.96 km/hNO18.40 °C7.20 °C 
14:00:0017.50 °C1016.20 hPa51.00 %7.30 °C 
13:45:0017.90 °C1016.60 hPa48.00 %3.96 km/hSO17.90 °C6.70 °C 
13:30:0018.20 °C1016.50 hPa49.00 %7.30 °C 
13:15:0017.90 °C1016.70 hPa49.00 %7.56 km/hSO18.30 °C7.00 °C 
13:00:0017.00 °C1016.70 hPa50.00 %6.50 °C 
12:45:0016.90 °C1016.70 hPa50.00 %6.12 km/hWNW17.40 °C6.40 °C 
12:30:0016.50 °C1016.80 hPa51.00 %6.30 °C 
12:15:0016.50 °C1017.10 hPa50.00 %6.10 °C 
12:00:0016.90 °C1017.00 hPa51.00 %6.70 °C 
11:45:0018.30 °C1017.20 hPa48.00 %7.10 °C 
11:30:0017.40 °C1017.30 hPa49.00 %6.60 °C 
11:15:0017.30 °C1017.20 hPa50.00 %6.80 °C 
11:00:0016.80 °C1017.30 hPa51.00 %6.60 °C 
10:45:0016.20 °C1017.30 hPa53.00 %8.64 km/hO16.20 °C6.60 °C 
10:30:0015.80 °C1017.40 hPa53.00 %6.30 °C 
10:15:0015.10 °C1017.60 hPa57.00 %6.70 °C 
10:00:0014.90 °C1017.50 hPa57.00 %6.50 °C 
09:45:0015.30 °C1017.50 hPa58.00 %7.10 °C 
09:30:0015.30 °C1017.50 hPa57.00 %6.80 °C 
09:15:0015.10 °C1017.60 hPa58.00 %6.90 °C 
09:00:0014.60 °C1017.80 hPa64.00 %7.90 °C 
08:45:0013.90 °C1017.70 hPa67.00 %7.90 °C 
08:30:0012.40 °C1017.90 hPa74.00 %7.90 °C 
08:15:0010.80 °C1017.90 hPa79.00 %7.30 °C 
08:00:009.00 °C1017.90 hPa81.00 %5.90 °C 
07:45:007.30 °C1018.00 hPa84.00 %4.80 °C 
07:30:006.10 °C1017.80 hPa86.00 %3.90 °C 
07:15:005.10 °C1017.90 hPa88.00 %3.30 °C 
07:00:003.50 °C1017.90 hPa89.00 %1.90 °C 
06:45:002.60 °C1017.80 hPa89.00 %1.00 °C 
06:30:001.90 °C1017.90 hPa90.00 %0.40 °C 
06:15:001.30 °C1017.90 hPa90.00 %-0.20 °C 
06:00:000.90 °C1017.80 hPa89.00 %-0.70 °C 
05:45:000.90 °C1017.90 hPa89.00 %-0.70 °C 
05:30:000.90 °C1018.10 hPa89.00 %-0.70 °C 
05:15:000.80 °C1018.10 hPa89.00 %-0.80 °C 
05:00:000.90 °C1018.10 hPa88.00 %-0.90 °C 
04:45:001.10 °C1018.20 hPa88.00 %-0.70 °C 
04:30:000.90 °C1018.30 hPa88.00 %-0.90 °C 
04:15:001.10 °C1018.40 hPa87.00 %-0.80 °C 
04:00:001.20 °C1018.60 hPa87.00 %-0.70 °C 
03:45:001.30 °C1018.50 hPa87.00 %-0.60 °C 
03:30:001.60 °C1018.80 hPa87.00 %-0.30 °C 
03:15:001.60 °C1018.80 hPa87.00 %-0.30 °C 
03:00:001.80 °C1018.80 hPa87.00 %-0.10 °C 
02:45:001.80 °C1019.10 hPa87.00 %-0.10 °C 
02:30:001.70 °C1019.20 hPa86.00 %-0.40 °C 
02:15:001.80 °C1019.30 hPa86.00 %-0.30 °C 
02:00:001.90 °C1019.50 hPa85.00 %-0.30 °C 
01:45:002.10 °C1019.60 hPa85.00 %-0.20 °C 
01:30:002.30 °C1019.70 hPa84.00 %-0.10 °C 
01:15:002.40 °C1019.80 hPa84.00 %0.00 °C 
01:00:002.50 °C1020.00 hPa84.00 %0.10 °C 
00:45:002.80 °C1020.20 hPa83.00 %0.20 °C 
00:30:003.10 °C1020.50 hPa82.00 %0.30 °C 
00:15:003.30 °C1020.50 hPa82.00 %6.12 km/hOSO1.70 °C0.50 °C 
00:00:003.50 °C1020.50 hPa81.00 %0.60 °C 

Permanenter Link zu dieser Seite: Wetter im Erzgebirge am 23.05.2015
Performance-Info: Die Erstellung der Seite / Statistik(en) / Tabelle(n) erforderte 5 Datenbankserver-Abfrage(n) und dauerte 102 Millisekunden. (Dieser Messwert ist von der Gesamt-Auslastung des Servers abhängig.)
Erzgebirge - Wetter | Erzgebirge - Wetter (Mobilgeräte) | Komplette Klimadatenbank